Terminal Aerodrome Forecast
Issued by NWS

Home | Current Version | Previous Version | Graphics & Text | Print | Product List | Glossary On
Versions: 1 2 3 4 5 6 7 8 9 10 11 12 13 14 15 16 17 18
000
FTUS43 KPAH 150300 AAA
TAFOWB
TAF AMD
KOWB 150356Z 1504/1524 33015G22KT 5SM -SHRA BR FEW009 BKN015
     FM150630 33015G22KT P6SM BKN015
     FM151000 33013G20KT P6SM FEW015 BKN020
     FM151400 34014G22KT P6SM SCT045=

USA.gov is the U.S. government's official web portal to all federal, state and local government web resources and services.